createdAt,value
2023-01-26T00:00:53.844Z,94.96
2023-01-26T00:02:34.000Z,94.89
2023-01-26T00:04:14.130Z,95.07
2023-01-26T00:05:54.272Z,94.98
2023-01-26T00:07:34.411Z,95.02
2023-01-26T00:09:14.579Z,95.03
2023-01-26T00:10:54.755Z,95.24
2023-01-26T00:12:35.200Z,95.16
2023-01-26T00:14:15.315Z,95.2
2023-01-26T00:15:55.528Z,95.44
2023-01-26T00:17:35.667Z,95.51
2023-01-26T00:19:15.834Z,95.45
2023-01-26T00:20:55.998Z,95.52
2023-01-26T00:22:36.094Z,95.32
2023-01-26T00:24:16.310Z,95.26
2023-01-26T00:25:56.388Z,95.24
2023-01-26T00:27:36.497Z,95.3
2023-01-26T00:29:16.687Z,95.33
2023-01-26T00:30:56.893Z,95.56
2023-01-26T00:32:36.960Z,95.48
2023-01-26T00:34:17.204Z,95.31
2023-01-26T00:35:57.412Z,95.1
2023-01-26T00:37:37.574Z,94.94
2023-01-26T00:39:17.716Z,94.82
2023-01-26T00:40:57.904Z,94.64
2023-01-26T00:42:38.087Z,94.7
2023-01-26T00:44:18.225Z,94.72
2023-01-26T00:45:58.410Z,94.65
2023-01-26T00:47:38.527Z,94.85
2023-01-26T00:49:18.657Z,94.95
2023-01-26T00:50:58.808Z,94.94
2023-01-26T00:52:39.016Z,94.93
2023-01-26T00:54:19.208Z,95.01
2023-01-26T00:55:59.322Z,94.91
2023-01-26T00:57:39.460Z,94.86
2023-01-26T00:59:19.613Z,94.49
2023-01-26T01:00:59.776Z,94.68
2023-01-26T01:02:39.898Z,94.53
2023-01-26T01:04:20.046Z,94.33
2023-01-26T01:06:00.201Z,94.26
2023-01-26T01:07:40.424Z,93.9
2023-01-26T01:09:20.611Z,93.74
2023-01-26T01:11:00.832Z,93.08
2023-01-26T01:12:41.004Z,93.2
2023-01-26T01:14:21.118Z,93.49
2023-01-26T01:16:01.266Z,93.33
2023-01-26T01:17:41.372Z,93.4
2023-01-26T01:19:21.547Z,93.28
2023-01-26T01:21:01.680Z,93.43
2023-01-26T01:22:41.848Z,93.53
2023-01-26T01:24:22.132Z,93.27
2023-01-26T01:26:02.157Z,93.35
2023-01-26T01:27:42.311Z,93.29
2023-01-26T01:29:22.442Z,93.55
2023-01-26T01:31:02.670Z,93.8
2023-01-26T01:32:42.791Z,93.91
2023-01-26T01:34:22.853Z,93.84
2023-01-26T01:36:03.006Z,93.55
2023-01-26T01:37:43.137Z,93.6
2023-01-26T01:39:23.359Z,93.97
2023-01-26T01:41:03.520Z,94.06
2023-01-26T01:42:43.688Z,94.06
2023-01-26T01:44:23.862Z,93.94
2023-01-26T01:46:04.059Z,93.96
2023-01-26T01:47:44.257Z,94.01
2023-01-26T01:49:24.355Z,93.99
2023-01-26T01:51:04.530Z,93.79
2023-01-26T01:52:44.736Z,93.7
2023-01-26T01:54:24.872Z,93.77
2023-01-26T01:56:05.050Z,93.49
2023-01-26T01:57:45.379Z,93.74
2023-01-26T01:59:25.405Z,93.67
2023-01-26T02:01:05.637Z,93.69
2023-01-26T02:02:45.742Z,93.74
2023-01-26T02:04:25.886Z,93.55
2023-01-26T02:06:06.037Z,93.42
2023-01-26T02:07:46.206Z,93.29
2023-01-26T02:09:26.410Z,93.39
2023-01-26T02:11:06.631Z,93.44
2023-01-26T02:12:46.717Z,93.48
2023-01-26T02:14:26.859Z,93.61
2023-01-26T02:16:07.088Z,93.5
2023-01-26T02:17:47.154Z,93.22
2023-01-26T02:19:27.311Z,93.5
2023-01-26T02:21:07.437Z,93.59
2023-01-26T02:22:47.592Z,93.47
2023-01-26T02:24:27.746Z,93.32
2023-01-26T02:26:07.878Z,93.38
2023-01-26T02:27:48.039Z,93.32
2023-01-26T02:29:28.216Z,93.48
2023-01-26T02:31:08.462Z,93.6
2023-01-26T02:32:48.558Z,93.52
2023-01-26T02:34:28.757Z,93.58
2023-01-26T02:36:08.895Z,93.74
2023-01-26T02:37:49.118Z,93.65
2023-01-26T02:39:29.315Z,93.43
2023-01-26T02:41:09.421Z,93.36
2023-01-26T02:42:49.585Z,93.47
2023-01-26T02:44:29.707Z,93.4
2023-01-26T02:46:10.003Z,93.29
2023-01-26T02:47:50.029Z,93.3
2023-01-26T02:49:30.165Z,93.47
2023-01-26T02:51:10.347Z,93.91
2023-01-26T02:52:50.507Z,93.56
2023-01-26T02:54:30.673Z,93.4
2023-01-26T02:56:10.842Z,93.27
2023-01-26T02:57:50.976Z,93.4
2023-01-26T02:59:31.107Z,93.16
2023-01-26T03:01:11.292Z,92.93
2023-01-26T03:02:51.344Z,93.26
2023-01-26T03:04:31.494Z,93.32
2023-01-26T03:06:11.680Z,93.2
2023-01-26T03:07:51.907Z,93.28
2023-01-26T03:09:32.073Z,93.3
2023-01-26T03:11:12.205Z,92.92
2023-01-26T03:12:52.335Z,93.02
2023-01-26T03:14:32.468Z,93.01
2023-01-26T03:16:12.694Z,92.89
2023-01-26T03:17:52.762Z,92.93
2023-01-26T03:19:32.973Z,93.2
2023-01-26T03:21:13.127Z,93.1
2023-01-26T03:24:33.458Z,92.81
2023-01-26T03:26:13.633Z,92.76
2023-01-26T03:27:53.768Z,92.95
2023-01-26T03:29:33.918Z,93.45
2023-01-26T03:31:14.159Z,93.48
2023-01-26T03:32:54.254Z,93.27
2023-01-26T03:36:14.508Z,93.08
2023-01-26T03:37:55.204Z,92.84
2023-01-26T03:39:34.850Z,92.5
2023-01-26T03:41:14.978Z,92.54
2023-01-26T03:42:55.185Z,92.34
2023-01-26T03:44:35.331Z,92.06
2023-01-26T03:46:15.503Z,92.12
2023-01-26T03:47:55.676Z,92.35
2023-01-26T03:49:35.785Z,92.55
2023-01-26T03:51:15.945Z,92.62
2023-01-26T03:52:56.182Z,92.51
2023-01-26T03:54:36.407Z,92.63
2023-01-26T03:56:16.606Z,92.79
2023-01-26T03:57:56.802Z,92.93
2023-01-26T03:59:36.893Z,92.58
2023-01-26T04:01:17.047Z,92.53
2023-01-26T04:02:57.140Z,92.49
2023-01-26T04:04:37.275Z,92.26
2023-01-26T04:06:17.448Z,92.04
2023-01-26T04:07:57.620Z,92.02
2023-01-26T04:09:37.812Z,91.91
2023-01-26T04:11:17.929Z,91.91
2023-01-26T04:12:58.076Z,91.99
2023-01-26T04:14:50.464Z,92.15
2023-01-26T04:16:18.470Z,92.18
2023-01-26T04:17:58.583Z,92.11
2023-01-26T04:19:38.723Z,91.87
2023-01-26T04:21:18.936Z,92.02
2023-01-26T04:22:59.061Z,92.09
2023-01-26T04:24:39.236Z,92.1
2023-01-26T04:26:19.353Z,92.28
2023-01-26T04:27:59.501Z,92.12
2023-01-26T04:29:39.684Z,91.9
2023-01-26T04:31:19.802Z,91.95
2023-01-26T04:32:59.921Z,92.04
2023-01-26T04:34:40.081Z,92.11
2023-01-26T04:36:20.195Z,91.99
2023-01-26T04:38:00.383Z,92.19
2023-01-26T04:39:40.558Z,92.03
2023-01-26T04:41:20.706Z,92
2023-01-26T04:43:00.874Z,91.98
2023-01-26T04:44:40.979Z,91.95
2023-01-26T04:46:21.137Z,92.22
2023-01-26T04:48:01.271Z,92.69
2023-01-26T04:49:41.385Z,92.68
2023-01-26T04:51:21.497Z,92.43
2023-01-26T04:53:01.736Z,92.64
2023-01-26T04:54:41.882Z,92.58
2023-01-26T04:56:22.089Z,92.53
2023-01-26T04:58:03.688Z,92.78
2023-01-26T04:59:42.362Z,92.69
2023-01-26T05:01:22.489Z,92.52
2023-01-26T05:03:02.605Z,92.94
2023-01-26T05:04:42.743Z,93.02
2023-01-26T05:06:22.885Z,92.84
2023-01-26T05:08:03.016Z,92.99
2023-01-26T05:09:43.134Z,93.04
2023-01-26T05:11:23.305Z,93.15
2023-01-26T05:13:03.460Z,92.93
2023-01-26T05:14:43.570Z,92.99
2023-01-26T05:16:23.702Z,93.01
2023-01-26T05:18:03.822Z,92.99
2023-01-26T05:19:43.994Z,93.12
2023-01-26T05:21:24.088Z,93.38
2023-01-26T05:23:04.188Z,93.37
2023-01-26T05:24:44.349Z,93.61
2023-01-26T05:26:24.559Z,93.61
2023-01-26T05:28:04.711Z,93.59
2023-01-26T05:29:44.837Z,93.65
2023-01-26T05:31:25.014Z,93.89
2023-01-26T05:33:05.165Z,93.9
2023-01-26T05:34:45.348Z,94.03
2023-01-26T05:36:25.548Z,94.08
2023-01-26T05:38:05.668Z,94.3
2023-01-26T05:39:45.844Z,94.45
2023-01-26T05:41:26.007Z,94.69
2023-01-26T05:43:06.196Z,94.74
2023-01-26T05:44:46.417Z,94.83
2023-01-26T05:46:26.617Z,94.97
2023-01-26T05:48:06.741Z,94.98
2023-01-26T05:49:46.883Z,95.18
2023-01-26T05:51:27.057Z,95.31
2023-01-26T05:53:07.329Z,95.34
2023-01-26T05:54:47.495Z,95.45
2023-01-26T05:56:27.672Z,95.43
2023-01-26T05:58:07.802Z,95.27
2023-01-26T05:59:47.951Z,95.3
2023-01-26T06:01:28.122Z,95.28
2023-01-26T06:03:08.346Z,95.43
2023-01-26T06:04:48.546Z,95.43
2023-01-26T06:06:28.701Z,95.42
2023-01-26T06:08:08.913Z,95.45
2023-01-26T06:09:49.085Z,95.48
2023-01-26T06:11:29.340Z,95.54
2023-01-26T06:13:09.470Z,95.54
2023-01-26T06:14:49.582Z,95.51
2023-01-26T06:16:29.771Z,95.59
2023-01-26T06:18:09.887Z,95.46
2023-01-26T06:19:50.019Z,95.49
2023-01-26T06:21:30.220Z,95.39
2023-01-26T06:23:17.042Z,95.42
2023-01-26T06:24:57.158Z,95.41
2023-01-26T06:26:37.338Z,95.49
2023-01-26T06:28:17.478Z,95.54
2023-01-26T06:29:57.596Z,95.63
2023-01-26T06:31:37.825Z,95.75
2023-01-26T06:33:17.909Z,95.79
2023-01-26T06:34:58.074Z,95.83
2023-01-26T06:36:38.226Z,95.88
2023-01-26T06:38:18.472Z,95.9
2023-01-26T06:39:58.715Z,95.91
2023-01-26T06:41:38.772Z,95.92
2023-01-26T06:43:18.967Z,95.92
2023-01-26T06:44:59.131Z,95.81
2023-01-26T06:46:39.319Z,95.73
2023-01-26T06:48:19.511Z,95.8
2023-01-26T06:49:59.639Z,95.81
2023-01-26T06:51:39.837Z,95.86
2023-01-26T06:53:20.002Z,95.88
2023-01-26T06:55:00.140Z,95.87
2023-01-26T06:56:40.286Z,95.76
2023-01-26T06:58:20.419Z,95.89
2023-01-26T07:00:00.532Z,95.92
2023-01-26T07:01:40.691Z,95.87
2023-01-26T07:03:20.838Z,95.72
2023-01-26T07:05:00.969Z,95.61
2023-01-26T07:06:41.123Z,95.55
2023-01-26T07:08:21.287Z,95.44
2023-01-26T07:10:01.557Z,95.45
2023-01-26T07:11:41.639Z,95.45
2023-01-26T07:13:21.835Z,95.41
2023-01-26T07:15:01.998Z,95.54
2023-01-26T07:16:42.166Z,95.54
2023-01-26T07:18:22.270Z,95.51
2023-01-26T07:20:02.410Z,95.47
2023-01-26T07:21:42.522Z,95.45
2023-01-26T07:23:22.678Z,95.38
2023-01-26T07:25:02.841Z,95.29
2023-01-26T07:26:42.997Z,95.37
2023-01-26T07:28:23.177Z,95.43
2023-01-26T07:30:03.380Z,95.66
2023-01-26T07:31:43.488Z,95.65
2023-01-26T07:33:23.618Z,95.71
2023-01-26T07:35:03.807Z,95.69
2023-01-26T07:36:43.951Z,95.66
2023-01-26T07:38:24.101Z,95.65
2023-01-26T07:40:04.281Z,95.65
2023-01-26T07:41:44.436Z,95.66
2023-01-26T07:43:24.667Z,95.57
2023-01-26T07:45:04.827Z,95.41
2023-01-26T07:46:45.781Z,95.46
2023-01-26T07:48:25.096Z,95.44
2023-01-26T07:50:05.247Z,95.36
2023-01-26T07:51:45.379Z,95.22
2023-01-26T07:53:25.599Z,95.17
2023-01-26T07:55:05.748Z,95.19
2023-01-26T07:56:45.869Z,95.21
2023-01-26T07:58:26.000Z,95.2
2023-01-26T08:00:06.177Z,95.14
2023-01-26T08:01:46.353Z,95.09
2023-01-26T08:03:26.467Z,95.05
2023-01-26T08:05:06.609Z,95.03
2023-01-26T08:06:46.742Z,95.04
2023-01-26T08:08:26.885Z,95.25
2023-01-26T08:10:07.093Z,95.41
2023-01-26T08:11:47.221Z,95.38
2023-01-26T08:13:35.285Z,95.31
2023-01-26T08:15:07.503Z,95.3
2023-01-26T08:16:47.701Z,95.2
2023-01-26T08:18:27.801Z,95.09
2023-01-26T08:20:07.930Z,95.16
2023-01-26T08:21:48.103Z,95.24
2023-01-26T08:23:28.283Z,95.32
2023-01-26T08:25:08.479Z,95.23
2023-01-26T08:26:48.626Z,95.24
2023-01-26T08:28:28.759Z,95.22
2023-01-26T08:30:09.181Z,95.06
2023-01-26T08:31:49.016Z,94.78
2023-01-26T08:33:29.101Z,94.62
2023-01-26T08:35:09.237Z,94.29
2023-01-26T08:36:49.426Z,94.34
2023-01-26T08:38:29.591Z,94.14
2023-01-26T08:40:10.182Z,94.12
2023-01-26T08:41:49.913Z,94.08
2023-01-26T08:43:30.069Z,93.79
2023-01-26T08:45:10.244Z,93.43
2023-01-26T08:46:50.402Z,93.34
2023-01-26T08:48:30.533Z,93.29
2023-01-26T08:50:11.016Z,93.24
2023-01-26T08:51:50.834Z,93.3
2023-01-26T08:53:31.084Z,93.33
2023-01-26T08:55:11.238Z,93.66
2023-01-26T08:56:51.430Z,93.64
2023-01-26T08:58:31.529Z,93.61
2023-01-26T09:00:12.074Z,93.72
2023-01-26T09:01:51.913Z,93.72
2023-01-26T09:03:31.922Z,93.57
2023-01-26T09:05:12.062Z,93.65
2023-01-26T09:06:52.213Z,93.41
2023-01-26T09:08:32.362Z,93.5
2023-01-26T09:10:13.059Z,93.49
2023-01-26T09:11:52.618Z,93.14
2023-01-26T09:13:32.808Z,92.53
2023-01-26T09:15:12.965Z,92.41
2023-01-26T09:16:53.129Z,92.38
2023-01-26T09:18:33.199Z,92.36
2023-01-26T09:20:13.597Z,92.38
2023-01-26T09:21:53.900Z,92.65
2023-01-26T09:23:33.668Z,92.82
2023-01-26T09:25:14.008Z,92.8
2023-01-26T09:26:54.015Z,92.53
2023-01-26T09:28:34.136Z,92.68
2023-01-26T09:30:14.333Z,92.84
2023-01-26T09:31:54.606Z,92.71
2023-01-26T09:33:34.576Z,92.98
2023-01-26T09:35:15.339Z,92.87
2023-01-26T09:36:54.858Z,92.57
2023-01-26T09:38:35.012Z,92.42
2023-01-26T09:40:15.196Z,92.44
2023-01-26T09:41:55.356Z,92.34
2023-01-26T09:43:35.521Z,92.62
2023-01-26T09:45:15.630Z,92.48
2023-01-26T09:46:55.781Z,92.24
2023-01-26T09:48:35.972Z,92.23
2023-01-26T09:50:16.097Z,92.55
2023-01-26T09:51:57.624Z,92.28
2023-01-26T09:53:36.437Z,92.08
2023-01-26T09:55:17.055Z,92.47
2023-01-26T09:56:56.707Z,92.29
2023-01-26T09:58:36.855Z,92.12
2023-01-26T10:00:16.999Z,92.46
2023-01-26T10:01:57.155Z,92.78
2023-01-26T10:03:37.315Z,92.51
2023-01-26T10:05:17.478Z,92.08
2023-01-26T10:06:57.606Z,91.74
2023-01-26T10:08:37.747Z,91.27
2023-01-26T10:10:17.877Z,90.37
2023-01-26T10:11:58.010Z,90.65
2023-01-26T10:13:38.180Z,90.2
2023-01-26T10:15:18.416Z,90.06
2023-01-26T10:16:58.509Z,89.64
2023-01-26T10:18:38.697Z,89.46
2023-01-26T10:20:18.841Z,89.33
2023-01-26T10:21:58.989Z,89.56
2023-01-26T10:23:39.147Z,88.98
2023-01-26T10:25:19.308Z,88.61
2023-01-26T10:26:59.421Z,88.78
2023-01-26T10:28:39.602Z,88.39
2023-01-26T10:30:19.960Z,87.84
2023-01-26T10:31:59.894Z,88.27
2023-01-26T10:33:39.987Z,88.33
2023-01-26T10:35:20.183Z,88.22
2023-01-26T10:37:00.325Z,87.84
2023-01-26T10:38:40.442Z,88.17
2023-01-26T10:40:20.626Z,88.2
2023-01-26T10:42:00.832Z,88.43
2023-01-26T10:43:40.941Z,88.78
2023-01-26T10:45:21.075Z,88.68
2023-01-26T10:47:01.336Z,88.52
2023-01-26T10:48:41.411Z,88.06
2023-01-26T10:50:21.554Z,87.95
2023-01-26T10:52:01.677Z,87.53
2023-01-26T10:53:41.864Z,87.1
2023-01-26T10:55:22.010Z,87.03
2023-01-26T10:57:02.109Z,87.34
2023-01-26T10:58:42.259Z,87.25
2023-01-26T11:00:22.426Z,87.05
2023-01-26T11:02:02.626Z,86.74
2023-01-26T11:03:42.763Z,86.71
2023-01-26T11:05:22.998Z,86.56
2023-01-26T11:07:03.114Z,86.36
2023-01-26T11:08:43.240Z,86.76
2023-01-26T11:10:23.432Z,86.98
2023-01-26T11:12:03.568Z,86.18
2023-01-26T11:13:43.766Z,86.39
2023-01-26T11:15:23.925Z,86.7
2023-01-26T11:17:04.047Z,85.65
2023-01-26T11:18:44.237Z,85.86
2023-01-26T11:20:24.386Z,86.41
2023-01-26T11:22:04.591Z,86.05
2023-01-26T11:23:44.708Z,85.79
2023-01-26T11:25:24.847Z,86.6
2023-01-26T11:27:05.019Z,86.86
2023-01-26T11:28:45.126Z,87.59
2023-01-26T11:30:25.267Z,87.4
2023-01-26T11:32:05.417Z,87.49
2023-01-26T11:33:45.560Z,87.81
2023-01-26T11:35:25.752Z,87.09
2023-01-26T11:37:05.987Z,87.23
2023-01-26T11:38:46.148Z,86.93
2023-01-26T11:40:26.268Z,86.65
2023-01-26T11:42:06.496Z,87.04
2023-01-26T11:43:46.628Z,87.62
2023-01-26T11:45:26.837Z,86.74
2023-01-26T11:47:06.973Z,86.71
2023-01-26T11:48:47.084Z,86.76
2023-01-26T11:50:27.227Z,86.31
2023-01-26T11:52:07.440Z,87.18
2023-01-26T11:53:47.717Z,87.36
2023-01-26T11:55:28.049Z,86.59
2023-01-26T11:57:08.337Z,87.15
2023-01-26T11:58:48.480Z,87.45
2023-01-26T12:00:30.741Z,87.39
2023-01-26T12:02:08.797Z,87.5
2023-01-26T12:03:48.873Z,87.23
2023-01-26T12:05:29.033Z,86.95
2023-01-26T12:07:09.151Z,87.47
2023-01-26T12:08:49.302Z,87.14
2023-01-26T12:10:29.459Z,87.64
2023-01-26T12:12:09.617Z,87.21
2023-01-26T12:13:49.805Z,88.03
2023-01-26T12:15:29.965Z,87.94
2023-01-26T12:17:18.177Z,87.52
2023-01-26T12:19:01.860Z,87.85
2023-01-26T12:20:30.499Z,87.6
2023-01-26T12:22:10.727Z,87.39
2023-01-26T12:23:50.786Z,87.38
2023-01-26T12:25:31.596Z,87.57
2023-01-26T12:27:11.012Z,87.8
2023-01-26T12:28:51.220Z,87.77
2023-01-26T12:30:31.482Z,87.91
2023-01-26T12:32:11.506Z,87.96
2023-01-26T12:33:51.705Z,88.15
2023-01-26T12:35:31.833Z,87.61
2023-01-26T12:37:12.026Z,88.18
2023-01-26T12:38:52.222Z,88.14
2023-01-26T12:40:32.333Z,87.95
2023-01-26T12:42:12.513Z,88.16
2023-01-26T12:43:52.641Z,88.68
2023-01-26T12:45:32.781Z,88.98
2023-01-26T12:47:12.951Z,89.03
2023-01-26T12:48:53.098Z,88.98
2023-01-26T12:50:33.244Z,89.11
2023-01-26T12:52:13.401Z,89.18
2023-01-26T12:53:53.573Z,88.86
2023-01-26T12:55:33.749Z,88.97
2023-01-26T12:57:13.860Z,89.42
2023-01-26T12:58:54.038Z,89.35
2023-01-26T13:00:34.153Z,89.7
2023-01-26T13:02:14.330Z,89.9
2023-01-26T13:03:54.460Z,89.64
2023-01-26T13:05:34.620Z,89.72
2023-01-26T13:07:14.763Z,89.86
2023-01-26T13:08:54.886Z,90.29
2023-01-26T13:10:35.045Z,90.52
2023-01-26T13:12:15.151Z,90.39
2023-01-26T13:13:55.350Z,90.86
2023-01-26T13:15:35.583Z,91.31
2023-01-26T13:17:15.708Z,91.7
2023-01-26T13:18:55.833Z,92.08
2023-01-26T13:20:35.980Z,92.19
2023-01-26T13:22:16.138Z,92.23
2023-01-26T13:23:56.332Z,92.61
2023-01-26T13:25:36.422Z,93.03
2023-01-26T13:27:16.605Z,93.55
2023-01-26T13:28:56.760Z,93.76
2023-01-26T13:30:36.921Z,94.24
2023-01-26T13:32:17.029Z,94.55
2023-01-26T13:33:57.164Z,94.63
2023-01-26T13:35:37.290Z,94.72
2023-01-26T13:37:17.400Z,94.81
2023-01-26T13:38:57.578Z,94.99
2023-01-26T13:40:37.753Z,95.18
2023-01-26T13:42:17.885Z,95.43
2023-01-26T13:43:58.092Z,95.47
2023-01-26T13:45:38.190Z,95.41
2023-01-26T13:47:20.619Z,95.58
2023-01-26T13:48:58.528Z,95.77
2023-01-26T13:50:38.620Z,95.81
2023-01-26T13:52:18.783Z,95.82
2023-01-26T13:53:59.019Z,95.78
2023-01-26T13:55:39.246Z,95.83
2023-01-26T13:57:19.412Z,95.9
2023-01-26T13:58:59.549Z,96.02
2023-01-26T14:00:39.763Z,96.07
2023-01-26T14:02:19.889Z,96.07
2023-01-26T14:04:00.013Z,96.04
2023-01-26T14:05:40.198Z,95.99
2023-01-26T14:07:20.326Z,96.06
2023-01-26T14:09:00.469Z,96.24
2023-01-26T14:10:40.597Z,96.27
2023-01-26T14:12:20.813Z,96.27
2023-01-26T14:14:00.959Z,96.35
2023-01-26T14:15:41.199Z,96.37
2023-01-26T14:17:21.284Z,96.44
2023-01-26T14:19:01.410Z,96.21
2023-01-26T14:20:41.588Z,96.12
2023-01-26T14:22:22.542Z,96.17
2023-01-26T14:24:02.046Z,96.23
2023-01-26T14:25:42.065Z,96.47
2023-01-26T14:27:22.212Z,96.41
2023-01-26T14:29:02.375Z,96.44
2023-01-26T14:30:42.548Z,96.51
2023-01-26T14:32:22.691Z,96.6
2023-01-26T14:34:02.876Z,96.63
2023-01-26T14:35:43.072Z,96.69
2023-01-26T14:37:23.161Z,96.65
2023-01-26T14:39:03.304Z,96.69
2023-01-26T14:40:43.453Z,96.74
2023-01-26T14:42:23.582Z,96.8
2023-01-26T14:44:03.730Z,96.9
2023-01-26T14:45:43.949Z,97
2023-01-26T14:47:24.082Z,97.12
2023-01-26T14:49:06.047Z,97.22
2023-01-26T14:50:44.385Z,97.28
2023-01-26T14:52:24.566Z,97.29
2023-01-26T14:54:04.776Z,97.42
2023-01-26T14:55:44.999Z,97.51
2023-01-26T14:57:28.202Z,97.56
2023-01-26T14:59:05.300Z,97.53
2023-01-26T15:00:45.509Z,97.57
2023-01-26T15:02:25.606Z,97.64
2023-01-26T15:04:05.856Z,97.66
2023-01-26T15:05:45.933Z,97.73
2023-01-26T15:07:26.096Z,97.74
2023-01-26T15:09:06.230Z,97.73
2023-01-26T15:10:46.378Z,97.76
2023-01-26T15:12:26.510Z,97.73
2023-01-26T15:14:06.717Z,97.76
2023-01-26T15:15:46.872Z,97.81
2023-01-26T15:17:27.026Z,97.86
2023-01-26T15:19:13.291Z,97.91
2023-01-26T15:20:53.500Z,97.89
2023-01-26T15:22:33.695Z,97.96
2023-01-26T15:24:13.989Z,98.07
2023-01-26T15:25:55.132Z,98.13
2023-01-26T15:27:34.188Z,98.19
2023-01-26T15:29:14.321Z,98.11
2023-01-26T15:30:54.566Z,98.21
2023-01-26T15:32:34.620Z,98.25
2023-01-26T15:34:14.772Z,98.23
2023-01-26T15:35:54.933Z,98.27
2023-01-26T15:37:35.042Z,98.34
2023-01-26T15:39:15.215Z,98.34
2023-01-26T15:40:55.364Z,98.39
2023-01-26T15:42:35.474Z,98.49
2023-01-26T15:44:15.622Z,98.48
2023-01-26T15:45:55.781Z,98.5
2023-01-26T15:47:35.881Z,98.54
2023-01-26T15:49:16.028Z,98.54
2023-01-26T15:50:56.209Z,98.58
2023-01-26T15:52:36.332Z,98.56
2023-01-26T15:54:16.527Z,98.58
2023-01-26T15:55:56.713Z,98.6
2023-01-26T15:57:36.876Z,98.6
2023-01-26T15:59:17.016Z,98.64
2023-01-26T16:00:57.162Z,98.68
2023-01-26T16:02:40.408Z,98.72
2023-01-26T16:04:17.453Z,98.74
2023-01-26T16:05:57.582Z,98.77
2023-01-26T16:07:37.711Z,98.85
2023-01-26T16:09:17.886Z,98.91
2023-01-26T16:10:58.113Z,98.95
2023-01-26T16:12:38.303Z,98.96
2023-01-26T16:14:18.501Z,98.97
2023-01-26T16:15:58.623Z,99.02
2023-01-26T16:17:38.773Z,99.07
2023-01-26T16:19:34.354Z,99.06
2023-01-26T16:20:59.122Z,99.08
2023-01-26T16:22:39.281Z,99.14
2023-01-26T16:24:19.503Z,99.17
2023-01-26T16:25:59.640Z,99.13
2023-01-26T16:27:39.788Z,99.2
2023-01-26T16:29:19.914Z,99.18
2023-01-26T16:31:02.468Z,99.21
2023-01-26T16:32:40.302Z,99.19
2023-01-26T16:34:20.452Z,99.28
2023-01-26T16:37:42.574Z,99.28
2023-01-26T16:39:20.863Z,99.32
2023-01-26T16:41:01.032Z,99.34
2023-01-26T16:42:41.196Z,99.36
2023-01-26T16:44:21.383Z,99.39
2023-01-26T16:46:01.629Z,99.39
2023-01-26T16:47:41.702Z,99.39
2023-01-26T16:49:21.837Z,99.42
2023-01-26T16:51:01.946Z,99.44
2023-01-26T16:52:42.132Z,99.43
2023-01-26T16:54:22.388Z,99.43
2023-01-26T16:56:02.545Z,99.49
2023-01-26T16:57:42.697Z,99.5
2023-01-26T16:59:25.892Z,99.49
2023-01-26T17:01:03.050Z,99.5
2023-01-26T17:02:46.260Z,99.55
2023-01-26T17:04:23.353Z,99.59
2023-01-26T17:06:03.532Z,99.6
2023-01-26T17:07:43.645Z,99.55
2023-01-26T17:09:23.861Z,99.54
2023-01-26T17:11:04.034Z,99.55
2023-01-26T17:12:44.197Z,99.52
2023-01-26T17:14:24.434Z,99.54
2023-01-26T17:16:04.618Z,99.58
2023-01-26T17:17:44.676Z,99.6
2023-01-26T17:19:24.801Z,99.57
2023-01-26T17:21:04.912Z,99.59
2023-01-26T17:22:45.038Z,99.58
2023-01-26T17:24:25.278Z,99.64
2023-01-26T17:26:05.368Z,99.66
2023-01-26T17:27:45.524Z,99.7
2023-01-26T17:29:25.665Z,99.71
2023-01-26T17:31:05.856Z,99.7
2023-01-26T17:32:45.973Z,99.66
2023-01-26T17:34:26.164Z,99.68
2023-01-26T17:36:06.319Z,99.71
2023-01-26T17:37:46.445Z,99.72
2023-01-26T17:39:26.667Z,99.67
2023-01-26T17:41:06.763Z,99.68
2023-01-26T17:42:46.892Z,99.71
2023-01-26T17:44:27.093Z,99.66
2023-01-26T17:46:07.338Z,99.65
2023-01-26T17:47:47.413Z,99.69
2023-01-26T17:49:27.599Z,99.7
2023-01-26T17:51:07.732Z,99.71
2023-01-26T17:52:47.864Z,99.67
2023-01-26T17:54:28.132Z,99.65
2023-01-26T17:56:08.709Z,99.66
2023-01-26T17:57:48.439Z,99.69
2023-01-26T17:59:28.576Z,99.67
2023-01-26T18:01:08.867Z,99.69
2023-01-26T18:02:48.935Z,99.66
2023-01-26T18:04:31.323Z,99.67
2023-01-26T18:06:09.256Z,99.68
2023-01-26T18:07:49.399Z,99.7
2023-01-26T18:09:29.560Z,99.66
2023-01-26T18:11:09.670Z,99.69
2023-01-26T18:12:49.882Z,99.64
2023-01-26T18:14:30.053Z,99.65
2023-01-26T18:16:10.229Z,99.65
2023-01-26T18:17:50.336Z,99.67
2023-01-26T18:19:30.583Z,99.63
2023-01-26T18:21:10.619Z,99.6
2023-01-26T18:22:50.808Z,99.59
2023-01-26T18:24:30.893Z,99.6
2023-01-26T18:26:11.096Z,99.57
2023-01-26T18:27:56.296Z,99.57
2023-01-26T18:29:36.430Z,99.59
2023-01-26T18:31:16.551Z,99.57
2023-01-26T18:32:56.717Z,99.59
2023-01-26T18:34:36.832Z,99.59
2023-01-26T18:36:16.986Z,99.6
2023-01-26T18:37:57.135Z,99.59
2023-01-26T18:39:37.276Z,99.59
2023-01-26T18:41:17.389Z,99.6
2023-01-26T18:42:57.561Z,99.61
2023-01-26T18:44:37.691Z,99.65
2023-01-26T18:46:17.823Z,99.59
2023-01-26T18:47:57.964Z,99.6
2023-01-26T18:49:38.077Z,99.59
2023-01-26T18:51:18.272Z,99.59
2023-01-26T18:52:58.408Z,99.6
2023-01-26T18:54:38.672Z,99.61
2023-01-26T18:56:18.864Z,99.58
2023-01-26T18:57:59.080Z,99.62
2023-01-26T18:59:39.225Z,99.6
2023-01-26T19:01:19.349Z,99.58
2023-01-26T19:02:59.513Z,99.6
2023-01-26T19:04:39.735Z,99.63
2023-01-26T19:06:19.855Z,99.62
2023-01-26T19:07:59.969Z,99.69
2023-01-26T19:09:40.216Z,99.67
2023-01-26T19:11:20.337Z,99.68
2023-01-26T19:13:00.669Z,99.74
2023-01-26T19:13:00.686Z,99.74
2023-01-26T19:13:00.695Z,99.74
2023-01-26T19:13:00.703Z,99.74
2023-01-26T19:14:40.679Z,99.71
2023-01-26T19:16:20.847Z,99.74
2023-01-26T19:18:00.977Z,99.72
2023-01-26T19:19:41.125Z,99.77
2023-01-26T19:21:21.275Z,99.78
2023-01-26T19:23:04.457Z,99.8
2023-01-26T19:24:41.560Z,99.83
2023-01-26T19:26:21.699Z,99.81
2023-01-26T19:28:01.907Z,99.79
2023-01-26T19:29:42.055Z,99.87
2023-01-26T19:31:22.321Z,99.83
2023-01-26T19:33:02.369Z,99.88
2023-01-26T19:34:42.479Z,99.84
2023-01-26T19:36:22.628Z,99.87
2023-01-26T19:38:02.747Z,99.94
2023-01-26T19:39:42.860Z,99.96
2023-01-26T19:41:23.094Z,99.96
2023-01-26T19:43:03.229Z,99.99
2023-01-26T19:44:43.381Z,100
2023-01-26T19:46:23.592Z,100
2023-01-26T19:48:03.738Z,100
2023-01-26T19:49:43.932Z,100
2023-01-26T19:51:24.151Z,100
2023-01-26T19:53:07.316Z,100
2023-01-26T19:54:44.554Z,100
2023-01-26T19:56:24.746Z,100
2023-01-26T19:58:04.879Z,100
2023-01-26T19:59:45.016Z,100
2023-01-26T20:01:25.288Z,100
2023-01-26T20:03:05.371Z,100
2023-01-26T20:04:45.461Z,100
2023-01-26T20:06:25.624Z,100
2023-01-26T20:08:05.772Z,100
2023-01-26T20:09:45.884Z,100
2023-01-26T20:11:26.103Z,100
2023-01-26T20:13:06.252Z,100
2023-01-26T20:14:46.398Z,100
2023-01-26T20:16:26.645Z,100
2023-01-26T20:18:06.675Z,100
2023-01-26T20:19:46.779Z,100
2023-01-26T20:21:26.975Z,100
2023-01-26T20:23:14.150Z,100
2023-01-26T20:24:47.230Z,100
2023-01-26T20:26:27.379Z,100
2023-01-26T20:28:07.553Z,100
2023-01-26T20:29:47.672Z,100
2023-01-26T20:31:27.876Z,100
2023-01-26T20:33:07.967Z,100
2023-01-26T20:34:48.174Z,100
2023-01-26T20:36:28.299Z,100
2023-01-26T20:38:08.422Z,100
2023-01-26T20:39:51.652Z,100
2023-01-26T20:41:28.707Z,100
2023-01-26T20:43:08.921Z,100
2023-01-26T20:44:49.075Z,100
2023-01-26T20:46:29.210Z,100
2023-01-26T20:48:09.316Z,100
2023-01-26T20:49:49.440Z,100
2023-01-26T20:51:29.634Z,100
2023-01-26T20:53:09.759Z,100
2023-01-26T20:54:49.996Z,100
2023-01-26T20:56:30.151Z,100
2023-01-26T20:58:10.330Z,100
2023-01-26T20:59:50.454Z,100
2023-01-26T21:01:30.592Z,100
2023-01-26T21:03:10.788Z,100
2023-01-26T21:04:50.840Z,100
2023-01-26T21:06:38.066Z,100
2023-01-26T21:08:11.127Z,100
2023-01-26T21:09:51.270Z,100
2023-01-26T21:11:31.374Z,100
2023-01-26T21:13:11.542Z,100
2023-01-26T21:14:51.729Z,100
2023-01-26T21:16:31.909Z,100
2023-01-26T21:18:12.021Z,100
2023-01-26T21:19:52.198Z,100
2023-01-26T21:21:32.369Z,100
2023-01-26T21:23:12.482Z,100
2023-01-26T21:24:52.591Z,100
2023-01-26T21:26:32.714Z,100
2023-01-26T21:28:12.929Z,100
2023-01-26T21:29:53.003Z,100
2023-01-26T21:31:33.172Z,100
2023-01-26T21:33:13.315Z,100
2023-01-26T21:34:53.463Z,100
2023-01-26T21:36:33.630Z,100
2023-01-26T21:38:13.782Z,100
2023-01-26T21:39:53.934Z,100
2023-01-26T21:41:37.173Z,100